Portada
METAR-TAF:

METAR-TAF

Aeroports :

Chōfu, Japó

latitud: 35-40N, longitud: 139-32E, altitud: 41 m

Observació

L'informe es va fer fa 10 hores i 21 minuts, a les 08:00 UTC
Vent 12 kt del Sud, variant entre Sud/Sud-Est i Sud/Sud-Oest
Temperatura 20°C
Humitat 46%
Pressió 1010 hPa
Visibilitat 10 km o més
Escasses núvols a una alçada de 3000 ft
Cel ennuvolat

METAR: RJTF 180800Z 19012KT 150V210 9999 FEW030 BKN/// 20/08 Q1010

Hora: 03:21 (18:21 UTC)


TAF: manca

Observacions i pronòstics meteorològics de més de 4000 aeroports (METAR i TAF).

Les estacions disponibles són els punts grocs i vermells al mapa.

Posi el ratolí al punt desitjat per veure el nom de l'estació.

Feu clic per veure les observacions i els pronòstics meteorològics.

Per canviar el mapa: feu clic els botons verds amb una creu de color negre per apropar; al botó verd amb un guió per allunyar la imatge; o en les fletxes verdes per a mapes adjacents.


METAR-TAF: